createdAt,value
2022-08-19T00:00:00.273Z,71
2022-08-19T00:05:00.304Z,71
2022-08-19T00:10:00.269Z,71
2022-08-19T00:15:00.142Z,71
2022-08-19T00:20:00.311Z,71
2022-08-19T00:25:00.129Z,71
2022-08-19T00:30:00.302Z,71
2022-08-19T00:35:00.217Z,72
2022-08-19T00:40:00.375Z,72
2022-08-19T00:45:00.145Z,72
2022-08-19T00:50:00.281Z,72
2022-08-19T00:55:00.214Z,72
2022-08-19T01:00:02.247Z,72
2022-08-19T01:05:00.172Z,72
2022-08-19T01:10:00.250Z,72
2022-08-19T01:15:00.186Z,73
2022-08-19T01:20:00.329Z,73
2022-08-19T01:25:00.267Z,73
2022-08-19T01:30:00.282Z,73
2022-08-19T01:35:00.277Z,73
2022-08-19T01:40:00.347Z,73
2022-08-19T01:45:00.203Z,73
2022-08-19T01:50:00.264Z,73
2022-08-19T01:55:00.229Z,73
2022-08-19T02:00:00.263Z,73
2022-08-19T02:05:00.214Z,73
2022-08-19T02:10:00.292Z,74
2022-08-19T02:15:00.138Z,74
2022-08-19T02:20:00.328Z,74
2022-08-19T02:25:00.185Z,74
2022-08-19T02:30:00.280Z,74
2022-08-19T02:35:00.232Z,74
2022-08-19T02:40:00.433Z,74
2022-08-19T02:45:00.241Z,74
2022-08-19T02:50:00.254Z,75
2022-08-19T02:55:00.237Z,75
2022-08-19T03:00:00.311Z,75
2022-08-19T03:05:00.304Z,75
2022-08-19T03:10:00.293Z,75
2022-08-19T03:15:00.290Z,75
2022-08-19T03:20:00.279Z,75
2022-08-19T03:25:00.837Z,75
2022-08-19T03:30:00.343Z,75
2022-08-19T03:35:00.241Z,75
2022-08-19T03:40:00.431Z,75
2022-08-19T03:45:00.305Z,75
2022-08-19T03:50:00.257Z,75
2022-08-19T03:55:00.292Z,75
2022-08-19T04:00:03.910Z,75
2022-08-19T04:05:00.226Z,75
2022-08-19T04:10:00.357Z,75
2022-08-19T04:15:00.240Z,75
2022-08-19T04:20:00.256Z,75
2022-08-19T04:25:00.281Z,75
2022-08-19T04:30:00.337Z,75
2022-08-19T04:35:02.194Z,75
2022-08-19T04:40:02.671Z,75
2022-08-19T04:45:00.289Z,76
2022-08-19T04:50:00.268Z,76
2022-08-19T04:55:00.274Z,76
2022-08-19T05:00:00.293Z,76
2022-08-19T05:05:00.245Z,76
2022-08-19T05:10:00.221Z,76
2022-08-19T05:15:00.276Z,76
2022-08-19T05:20:00.315Z,76
2022-08-19T05:25:12.145Z,77
2022-08-19T05:30:00.364Z,77
2022-08-19T05:35:00.248Z,77
2022-08-19T05:40:00.459Z,77
2022-08-19T05:45:00.258Z,76
2022-08-19T05:50:00.323Z,76
2022-08-19T05:55:00.280Z,77
2022-08-19T06:00:00.372Z,77
2022-08-19T06:05:00.256Z,77
2022-08-19T06:10:01.365Z,77
2022-08-19T06:15:00.933Z,77
2022-08-19T06:20:00.546Z,77
2022-08-19T06:25:00.238Z,77
2022-08-19T06:30:00.348Z,77
2022-08-19T06:35:00.277Z,78
2022-08-19T06:40:00.385Z,78
2022-08-19T06:45:00.287Z,78
2022-08-19T06:50:01.374Z,78
2022-08-19T06:55:00.247Z,77
2022-08-19T07:00:00.337Z,77
2022-08-19T07:05:00.339Z,77
2022-08-19T07:10:01.973Z,77
2022-08-19T07:15:00.318Z,77
2022-08-19T07:20:05.488Z,77
2022-08-19T07:25:00.306Z,77
2022-08-19T07:30:00.301Z,77
2022-08-19T07:35:05.329Z,77
2022-08-19T07:40:00.503Z,77
2022-08-19T07:45:00.286Z,77
2022-08-19T07:50:00.315Z,77
2022-08-19T07:55:00.285Z,77
2022-08-19T08:00:00.354Z,77
2022-08-19T08:05:00.236Z,77
2022-08-19T08:10:00.647Z,77
2022-08-19T08:15:00.248Z,77
2022-08-19T08:20:00.248Z,77
2022-08-19T08:25:00.235Z,77
2022-08-19T08:30:00.286Z,77
2022-08-19T08:35:00.232Z,76
2022-08-19T08:40:00.414Z,76
2022-08-19T08:45:00.416Z,76
2022-08-19T08:50:00.264Z,76
2022-08-19T08:55:00.258Z,75
2022-08-19T09:00:00.375Z,75
2022-08-19T09:05:00.236Z,75
2022-08-19T09:10:00.327Z,75
2022-08-19T09:15:00.304Z,73
2022-08-19T09:20:00.313Z,73
2022-08-19T09:25:00.274Z,72
2022-08-19T09:30:00.286Z,71
2022-08-19T09:35:00.283Z,70
2022-08-19T09:40:00.399Z,70
2022-08-19T09:45:00.543Z,70
2022-08-19T09:50:00.223Z,69
2022-08-19T09:55:00.574Z,69
2022-08-19T10:00:00.309Z,69
2022-08-19T10:05:00.235Z,68
2022-08-19T10:10:00.311Z,68
2022-08-19T10:15:00.213Z,67
2022-08-19T10:20:00.311Z,66
2022-08-19T10:25:00.290Z,65
2022-08-19T10:30:00.264Z,65
2022-08-19T10:35:00.308Z,64
2022-08-19T10:40:00.564Z,64
2022-08-19T10:45:00.319Z,64
2022-08-19T10:50:00.297Z,64
2022-08-19T10:55:00.264Z,64
2022-08-19T11:00:00.331Z,64
2022-08-19T11:05:04.848Z,63
2022-08-19T11:10:00.231Z,63
2022-08-19T11:15:00.168Z,62
2022-08-19T11:20:00.344Z,62
2022-08-19T11:25:00.297Z,61
2022-08-19T11:30:00.246Z,61
2022-08-19T11:35:00.262Z,61
2022-08-19T11:40:00.395Z,61
2022-08-19T11:45:00.214Z,61
2022-08-19T11:50:00.279Z,61
2022-08-19T11:55:00.223Z,60
2022-08-19T12:00:00.290Z,60
2022-08-19T12:05:00.231Z,59
2022-08-19T12:10:00.269Z,59
2022-08-19T12:15:00.175Z,58
2022-08-19T12:20:00.277Z,58
2022-08-19T12:25:00.281Z,57
2022-08-19T12:30:00.320Z,57
2022-08-19T12:35:00.207Z,58
2022-08-19T12:40:00.512Z,58
2022-08-19T12:45:00.174Z,58
2022-08-19T12:50:00.272Z,57
2022-08-19T12:55:00.262Z,57
2022-08-19T13:00:00.272Z,56
2022-08-19T13:05:00.203Z,57
2022-08-19T13:10:00.339Z,57
2022-08-19T13:15:00.298Z,56
2022-08-19T13:20:00.309Z,55
2022-08-19T13:25:00.219Z,55
2022-08-19T13:30:00.282Z,55
2022-08-19T13:35:00.289Z,55
2022-08-19T13:40:00.366Z,53
2022-08-19T13:45:00.266Z,53
2022-08-19T13:50:00.243Z,53
2022-08-19T13:55:00.273Z,53
2022-08-19T14:00:00.276Z,52
2022-08-19T14:05:00.316Z,52
2022-08-19T14:10:00.296Z,52
2022-08-19T14:15:00.232Z,52
2022-08-19T14:20:00.268Z,52
2022-08-19T14:25:00.306Z,52
2022-08-19T14:30:00.277Z,51
2022-08-19T14:35:00.239Z,51
2022-08-19T14:40:00.457Z,50
2022-08-19T14:45:00.263Z,51
2022-08-19T14:50:00.249Z,50
2022-08-19T14:55:00.337Z,51
2022-08-19T15:00:00.335Z,50
2022-08-19T15:05:00.224Z,50
2022-08-19T15:10:00.395Z,49
2022-08-19T15:15:00.294Z,49
2022-08-19T15:20:00.419Z,49
2022-08-19T15:25:00.252Z,49
2022-08-19T15:30:01.405Z,49
2022-08-19T15:35:00.171Z,49
2022-08-19T15:40:00.459Z,48
2022-08-19T15:45:00.681Z,48
2022-08-19T15:50:01.024Z,48
2022-08-19T15:55:00.273Z,48
2022-08-19T16:00:02.875Z,48
2022-08-19T16:05:00.317Z,48
2022-08-19T16:10:26.184Z,48
2022-08-19T16:15:00.251Z,48
2022-08-19T16:20:00.248Z,49
2022-08-19T16:25:00.284Z,49
2022-08-19T16:30:00.313Z,49
2022-08-19T16:35:05.970Z,50
2022-08-19T16:40:00.410Z,50
2022-08-19T16:45:00.326Z,50
2022-08-19T16:50:00.308Z,50
2022-08-19T16:55:00.238Z,51
2022-08-19T17:00:00.256Z,51
2022-08-19T17:05:00.228Z,51
2022-08-19T17:10:00.262Z,51
2022-08-19T17:15:00.208Z,51
2022-08-19T17:20:00.331Z,51
2022-08-19T17:25:00.259Z,51
2022-08-19T17:30:00.263Z,50
2022-08-19T17:35:00.258Z,51
2022-08-19T17:40:00.419Z,51
2022-08-19T17:45:00.221Z,50
2022-08-19T17:50:00.292Z,50
2022-08-19T17:55:00.264Z,50
2022-08-19T18:00:00.251Z,50
2022-08-19T18:05:00.271Z,51
2022-08-19T18:10:01.850Z,51
2022-08-19T18:15:00.325Z,51
2022-08-19T18:20:00.225Z,51
2022-08-19T18:25:00.171Z,51
2022-08-19T18:30:00.376Z,51
2022-08-19T18:35:00.223Z,51
2022-08-19T18:40:00.347Z,52
2022-08-19T18:45:00.430Z,52
2022-08-19T18:50:00.208Z,52
2022-08-19T18:55:00.956Z,53
2022-08-19T19:00:00.271Z,53
2022-08-19T19:05:03.886Z,54
2022-08-19T19:10:00.344Z,54
2022-08-19T19:15:00.239Z,55
2022-08-19T19:20:00.307Z,55
2022-08-19T19:25:00.299Z,55
2022-08-19T19:30:00.300Z,56
2022-08-19T19:35:00.217Z,57
2022-08-19T19:40:00.327Z,57
2022-08-19T19:45:00.264Z,58
2022-08-19T19:50:15.818Z,58
2022-08-19T19:55:00.230Z,58
2022-08-19T20:00:00.242Z,59
2022-08-19T20:05:00.239Z,59
2022-08-19T20:10:00.500Z,59
2022-08-19T20:15:00.246Z,59
2022-08-19T20:20:00.275Z,59
2022-08-19T20:25:00.254Z,60
2022-08-19T20:30:00.252Z,60
2022-08-19T20:35:00.234Z,60
2022-08-19T20:40:00.366Z,60
2022-08-19T20:45:00.257Z,60
2022-08-19T20:50:00.263Z,60
2022-08-19T20:55:00.342Z,61
2022-08-19T21:00:00.345Z,61
2022-08-19T21:05:00.297Z,62
2022-08-19T21:10:00.289Z,63
2022-08-19T21:15:00.229Z,62
2022-08-19T21:20:00.216Z,63
2022-08-19T21:25:00.222Z,63
2022-08-19T21:30:00.235Z,63
2022-08-19T21:35:00.203Z,63
2022-08-19T21:40:00.389Z,64
2022-08-19T21:45:00.218Z,64
2022-08-19T21:50:00.161Z,64
2022-08-19T21:55:00.252Z,64
2022-08-19T22:00:00.293Z,64
2022-08-19T22:05:00.149Z,64
2022-08-19T22:10:00.343Z,64
2022-08-19T22:15:00.150Z,65
2022-08-19T22:20:00.299Z,65
2022-08-19T22:25:00.147Z,65
2022-08-19T22:30:00.291Z,65
2022-08-19T22:35:00.269Z,65
2022-08-19T22:40:00.454Z,65
2022-08-19T22:45:00.150Z,65
2022-08-19T22:50:00.285Z,65
2022-08-19T22:55:00.243Z,65
2022-08-19T23:00:01.375Z,65
2022-08-19T23:05:00.140Z,66
2022-08-19T23:10:00.274Z,67
2022-08-19T23:15:00.132Z,67
2022-08-19T23:20:00.228Z,67
2022-08-19T23:25:00.125Z,67
2022-08-19T23:30:00.287Z,67
2022-08-19T23:35:00.213Z,67
2022-08-19T23:40:00.427Z,67
2022-08-19T23:45:00.125Z,67
2022-08-19T23:50:00.248Z,67
2022-08-19T23:55:00.125Z,67
